sensor_id;sensor_type;location;lat;lon;timestamp;temperature;humidity
11142;DHT22;5625;50.122;19.864;2022-08-21T00:02:14;21.20;93.70
11142;DHT22;5625;50.122;19.864;2022-08-21T00:04:43;21.20;93.50
11142;DHT22;5625;50.122;19.864;2022-08-21T00:07:23;21.20;94.00
11142;DHT22;5625;50.122;19.864;2022-08-21T00:09:52;21.20;94.10
11142;DHT22;5625;50.122;19.864;2022-08-21T00:12:20;21.10;94.00
11142;DHT22;5625;50.122;19.864;2022-08-21T00:14:49;21.10;93.80
11142;DHT22;5625;50.122;19.864;2022-08-21T00:17:24;21.10;94.10
11142;DHT22;5625;50.122;19.864;2022-08-21T00:19:52;21.20;93.70
11142;DHT22;5625;50.122;19.864;2022-08-21T00:22:20;21.10;93.70
11142;DHT22;5625;50.122;19.864;2022-08-21T00:24:48;21.10;94.00
11142;DHT22;5625;50.122;19.864;2022-08-21T00:27:16;21.10;94.20
11142;DHT22;5625;50.122;19.864;2022-08-21T00:29:44;21.10;94.00
11142;DHT22;5625;50.122;19.864;2022-08-21T00:32:12;21.10;94.30
11142;DHT22;5625;50.122;19.864;2022-08-21T00:34:42;21.00;94.90
11142;DHT22;5625;50.122;19.864;2022-08-21T00:37:10;21.00;94.50
11142;DHT22;5625;50.122;19.864;2022-08-21T00:39:38;21.00;94.20
11142;DHT22;5625;50.122;19.864;2022-08-21T00:42:06;21.00;94.60
11142;DHT22;5625;50.122;19.864;2022-08-21T00:44:34;21.10;93.50
11142;DHT22;5625;50.122;19.864;2022-08-21T00:47:03;21.00;93.70
11142;DHT22;5625;50.122;19.864;2022-08-21T00:49:31;21.00;93.80
11142;DHT22;5625;50.122;19.864;2022-08-21T00:52:01;21.00;94.30
11142;DHT22;5625;50.122;19.864;2022-08-21T00:54:30;21.00;94.90
11142;DHT22;5625;50.122;19.864;2022-08-21T00:57:02;21.00;94.90
11142;DHT22;5625;50.122;19.864;2022-08-21T00:59:34;21.00;94.60
11142;DHT22;5625;50.122;19.864;2022-08-21T01:02:04;20.90;95.10
11142;DHT22;5625;50.122;19.864;2022-08-21T01:04:34;20.90;94.90
11142;DHT22;5625;50.122;19.864;2022-08-21T01:07:04;20.90;96.00
11142;DHT22;5625;50.122;19.864;2022-08-21T01:09:33;20.90;96.50
11142;DHT22;5625;50.122;19.864;2022-08-21T01:12:02;20.90;96.10
11142;DHT22;5625;50.122;19.864;2022-08-21T01:14:31;20.90;96.30
11142;DHT22;5625;50.122;19.864;2022-08-21T01:17:00;20.80;96.60
11142;DHT22;5625;50.122;19.864;2022-08-21T01:19:30;20.80;96.80
11142;DHT22;5625;50.122;19.864;2022-08-21T01:22:00;20.80;97.60
11142;DHT22;5625;50.122;19.864;2022-08-21T01:24:28;20.70;97.90
11142;DHT22;5625;50.122;19.864;2022-08-21T01:26:59;20.70;97.70
11142;DHT22;5625;50.122;19.864;2022-08-21T01:29:31;20.70;98.00
11142;DHT22;5625;50.122;19.864;2022-08-21T01:32:04;20.70;97.80
11142;DHT22;5625;50.122;19.864;2022-08-21T01:34:34;20.70;96.90
11142;DHT22;5625;50.122;19.864;2022-08-21T01:37:05;20.70;96.60
11142;DHT22;5625;50.122;19.864;2022-08-21T01:39:34;20.70;96.70
11142;DHT22;5625;50.122;19.864;2022-08-21T01:42:03;20.70;96.40
11142;DHT22;5625;50.122;19.864;2022-08-21T01:44:32;20.70;96.00
11142;DHT22;5625;50.122;19.864;2022-08-21T01:47:02;20.70;95.90
11142;DHT22;5625;50.122;19.864;2022-08-21T01:49:30;20.60;95.00
11142;DHT22;5625;50.122;19.864;2022-08-21T01:51:59;20.60;95.40
11142;DHT22;5625;50.122;19.864;2022-08-21T01:54:29;20.60;95.00
11142;DHT22;5625;50.122;19.864;2022-08-21T01:56:58;20.60;95.40
11142;DHT22;5625;50.122;19.864;2022-08-21T01:59:27;20.60;96.60
11142;DHT22;5625;50.122;19.864;2022-08-21T02:01:55;20.60;96.10
11142;DHT22;5625;50.122;19.864;2022-08-21T02:04:24;20.60;96.30
11142;DHT22;5625;50.122;19.864;2022-08-21T02:06:52;20.60;96.40
11142;DHT22;5625;50.122;19.864;2022-08-21T02:09:20;20.50;96.40
11142;DHT22;5625;50.122;19.864;2022-08-21T02:11:51;20.50;96.10
11142;DHT22;5625;50.122;19.864;2022-08-21T02:14:20;20.50;95.90
11142;DHT22;5625;50.122;19.864;2022-08-21T02:16:58;20.50;96.80
11142;DHT22;5625;50.122;19.864;2022-08-21T02:19:34;20.50;97.20
11142;DHT22;5625;50.122;19.864;2022-08-21T02:22:07;20.50;97.20
11142;DHT22;5625;50.122;19.864;2022-08-21T02:24:35;20.50;96.80
11142;DHT22;5625;50.122;19.864;2022-08-21T02:27:22;20.50;97.10
11142;DHT22;5625;50.122;19.864;2022-08-21T02:29:53;20.50;96.00
11142;DHT22;5625;50.122;19.864;2022-08-21T02:32:21;20.50;97.90
11142;DHT22;5625;50.122;19.864;2022-08-21T02:34:49;20.50;98.00
11142;DHT22;5625;50.122;19.864;2022-08-21T02:37:17;20.50;97.70
11142;DHT22;5625;50.122;19.864;2022-08-21T02:39:45;20.50;97.70
11142;DHT22;5625;50.122;19.864;2022-08-21T02:42:13;20.40;97.20
11142;DHT22;5625;50.122;19.864;2022-08-21T02:44:42;20.40;98.10
11142;DHT22;5625;50.122;19.864;2022-08-21T02:47:11;20.40;98.00
11142;DHT22;5625;50.122;19.864;2022-08-21T02:49:39;20.40;98.30
11142;DHT22;5625;50.122;19.864;2022-08-21T02:52:07;20.40;98.30
11142;DHT22;5625;50.122;19.864;2022-08-21T02:54:35;20.40;98.30
11142;DHT22;5625;50.122;19.864;2022-08-21T02:57:03;20.40;98.70
11142;DHT22;5625;50.122;19.864;2022-08-21T02:59:31;20.40;98.50
11142;DHT22;5625;50.122;19.864;2022-08-21T03:02:00;20.40;99.30
11142;DHT22;5625;50.122;19.864;2022-08-21T03:04:29;20.40;99.60
11142;DHT22;5625;50.122;19.864;2022-08-21T03:06:57;20.30;99.80
11142;DHT22;5625;50.122;19.864;2022-08-21T03:09:25;20.30;99.50
11142;DHT22;5625;50.122;19.864;2022-08-21T03:11:53;20.30;99.00
11142;DHT22;5625;50.122;19.864;2022-08-21T03:14:21;20.30;99.20
11142;DHT22;5625;50.122;19.864;2022-08-21T03:16:49;20.30;99.90
11142;DHT22;5625;50.122;19.864;2022-08-21T03:19:18;20.30;99.50
11142;DHT22;5625;50.122;19.864;2022-08-21T03:21:47;20.30;99.50
11142;DHT22;5625;50.122;19.864;2022-08-21T03:24:15;20.30;99.00
11142;DHT22;5625;50.122;19.864;2022-08-21T03:26:47;20.30;99.40
11142;DHT22;5625;50.122;19.864;2022-08-21T03:29:15;20.30;98.90
11142;DHT22;5625;50.122;19.864;2022-08-21T03:31:43;20.30;99.30
11142;DHT22;5625;50.122;19.864;2022-08-21T03:34:11;20.30;98.90
11142;DHT22;5625;50.122;19.864;2022-08-21T03:36:41;20.30;99.30
11142;DHT22;5625;50.122;19.864;2022-08-21T03:39:09;20.30;99.40
11142;DHT22;5625;50.122;19.864;2022-08-21T03:41:38;20.30;99.50
11142;DHT22;5625;50.122;19.864;2022-08-21T03:44:06;20.30;99.90
11142;DHT22;5625;50.122;19.864;2022-08-21T03:46:34;20.30;99.40
11142;DHT22;5625;50.122;19.864;2022-08-21T03:49:03;20.30;99.30
11142;DHT22;5625;50.122;19.864;2022-08-21T03:51:31;20.30;99.60
11142;DHT22;5625;50.122;19.864;2022-08-21T03:54:01;20.30;99.70
11142;DHT22;5625;50.122;19.864;2022-08-21T03:56:30;20.30;99.90
11142;DHT22;5625;50.122;19.864;2022-08-21T03:58:58;20.30;99.90
11142;DHT22;5625;50.122;19.864;2022-08-21T04:01:26;20.30;99.90
11142;DHT22;5625;50.122;19.864;2022-08-21T04:03:54;20.30;99.90
11142;DHT22;5625;50.122;19.864;2022-08-21T04:06:22;20.30;99.90
11142;DHT22;5625;50.122;19.864;2022-08-21T04:08:51;20.30;99.90
11142;DHT22;5625;50.122;19.864;2022-08-21T04:11:21;20.30;99.90
11142;DHT22;5625;50.122;19.864;2022-08-21T04:13:49;20.30;99.90
11142;DHT22;5625;50.122;19.864;2022-08-21T04:16:17;20.30;99.90
11142;DHT22;5625;50.122;19.864;2022-08-21T04:18:46;20.30;99.90
11142;DHT22;5625;50.122;19.864;2022-08-21T04:21:14;20.30;99.90
11142;DHT22;5625;50.122;19.864;2022-08-21T04:23:42;20.30;99.90
11142;DHT22;5625;50.122;19.864;2022-08-21T04:26:10;20.30;99.90
11142;DHT22;5625;50.122;19.864;2022-08-21T04:28:40;20.30;99.90
11142;DHT22;5625;50.122;19.864;2022-08-21T04:31:10;20.40;99.90
11142;DHT22;5625;50.122;19.864;2022-08-21T04:33:38;20.40;99.90
11142;DHT22;5625;50.122;19.864;2022-08-21T04:36:06;20.40;99.90
11142;DHT22;5625;50.122;19.864;2022-08-21T04:38:35;20.40;99.90
11142;DHT22;5625;50.122;19.864;2022-08-21T04:41:09;20.40;99.90
11142;DHT22;5625;50.122;19.864;2022-08-21T04:43:38;20.40;99.90
11142;DHT22;5625;50.122;19.864;2022-08-21T04:46:07;20.40;99.90
11142;DHT22;5625;50.122;19.864;2022-08-21T04:48:39;20.40;99.90
11142;DHT22;5625;50.122;19.864;2022-08-21T04:51:13;20.50;99.90
11142;DHT22;5625;50.122;19.864;2022-08-21T04:53:46;20.50;99.90
11142;DHT22;5625;50.122;19.864;2022-08-21T04:56:20;20.50;99.90
11142;DHT22;5625;50.122;19.864;2022-08-21T04:58:51;20.50;99.90
11142;DHT22;5625;50.122;19.864;2022-08-21T05:01:24;20.60;99.90
11142;DHT22;5625;50.122;19.864;2022-08-21T05:03:56;20.60;99.90
11142;DHT22;5625;50.122;19.864;2022-08-21T05:06:26;20.60;99.90
11142;DHT22;5625;50.122;19.864;2022-08-21T05:08:56;20.70;99.90
11142;DHT22;5625;50.122;19.864;2022-08-21T05:11:28;20.70;99.90
11142;DHT22;5625;50.122;19.864;2022-08-21T05:13:57;20.70;99.90
11142;DHT22;5625;50.122;19.864;2022-08-21T05:16:27;20.80;99.90
11142;DHT22;5625;50.122;19.864;2022-08-21T05:19:03;20.90;99.90
11142;DHT22;5625;50.122;19.864;2022-08-21T05:21:31;20.90;99.90
11142;DHT22;5625;50.122;19.864;2022-08-21T05:23:59;20.90;99.90
11142;DHT22;5625;50.122;19.864;2022-08-21T05:26:27;21.00;99.90
11142;DHT22;5625;50.122;19.864;2022-08-21T05:28:56;21.00;99.90
11142;DHT22;5625;50.122;19.864;2022-08-21T05:31:24;21.00;99.90
11142;DHT22;5625;50.122;19.864;2022-08-21T05:33:54;21.10;99.90
11142;DHT22;5625;50.122;19.864;2022-08-21T05:36:23;21.10;99.90
11142;DHT22;5625;50.122;19.864;2022-08-21T05:38:51;21.20;99.90
11142;DHT22;5625;50.122;19.864;2022-08-21T05:41:19;21.20;99.90
11142;DHT22;5625;50.122;19.864;2022-08-21T05:43:47;21.20;99.90
11142;DHT22;5625;50.122;19.864;2022-08-21T05:46:16;21.20;99.90
11142;DHT22;5625;50.122;19.864;2022-08-21T05:48:44;21.30;99.90
11142;DHT22;5625;50.122;19.864;2022-08-21T05:51:14;21.30;99.90
11142;DHT22;5625;50.122;19.864;2022-08-21T05:53:44;21.30;99.90
11142;DHT22;5625;50.122;19.864;2022-08-21T05:56:13;21.40;99.90
11142;DHT22;5625;50.122;19.864;2022-08-21T05:58:41;21.40;99.90
11142;DHT22;5625;50.122;19.864;2022-08-21T06:01:10;21.50;99.90
11142;DHT22;5625;50.122;19.864;2022-08-21T06:03:40;21.50;99.90
11142;DHT22;5625;50.122;19.864;2022-08-21T06:06:09;21.50;99.90
11142;DHT22;5625;50.122;19.864;2022-08-21T06:08:39;21.60;99.90
11142;DHT22;5625;50.122;19.864;2022-08-21T06:11:07;21.60;99.90
11142;DHT22;5625;50.122;19.864;2022-08-21T06:13:37;21.60;99.90
11142;DHT22;5625;50.122;19.864;2022-08-21T06:16:14;21.70;99.90
11142;DHT22;5625;50.122;19.864;2022-08-21T06:18:44;21.80;99.90
11142;DHT22;5625;50.122;19.864;2022-08-21T06:21:13;21.80;99.90
11142;DHT22;5625;50.122;19.864;2022-08-21T06:23:43;21.80;99.90
11142;DHT22;5625;50.122;19.864;2022-08-21T06:26:13;21.90;99.90
11142;DHT22;5625;50.122;19.864;2022-08-21T06:28:42;22.00;99.40
11142;DHT22;5625;50.122;19.864;2022-08-21T06:31:12;22.10;99.00
11142;DHT22;5625;50.122;19.864;2022-08-21T06:33:40;22.10;97.70
11142;DHT22;5625;50.122;19.864;2022-08-21T06:36:08;22.20;96.80
11142;DHT22;5625;50.122;19.864;2022-08-21T06:38:37;22.30;97.20
11142;DHT22;5625;50.122;19.864;2022-08-21T06:41:07;22.40;95.90
11142;DHT22;5625;50.122;19.864;2022-08-21T06:43:36;22.40;95.00
11142;DHT22;5625;50.122;19.864;2022-08-21T06:46:10;22.50;94.20
11142;DHT22;5625;50.122;19.864;2022-08-21T06:48:38;22.50;94.50
11142;DHT22;5625;50.122;19.864;2022-08-21T06:51:06;22.50;94.40
11142;DHT22;5625;50.122;19.864;2022-08-21T06:53:35;22.60;93.50
11142;DHT22;5625;50.122;19.864;2022-08-21T06:56:03;22.60;93.70
11142;DHT22;5625;50.122;19.864;2022-08-21T06:58:33;22.60;93.70
11142;DHT22;5625;50.122;19.864;2022-08-21T07:01:01;22.60;93.50
11142;DHT22;5625;50.122;19.864;2022-08-21T07:03:36;22.70;92.90
11142;DHT22;5625;50.122;19.864;2022-08-21T07:06:05;22.70;93.10
11142;DHT22;5625;50.122;19.864;2022-08-21T07:08:34;22.70;92.70
11142;DHT22;5625;50.122;19.864;2022-08-21T07:13:36;22.80;91.50
11142;DHT22;5625;50.122;19.864;2022-08-21T07:16:05;22.90;92.00
11142;DHT22;5625;50.122;19.864;2022-08-21T07:18:33;22.90;91.30
11142;DHT22;5625;50.122;19.864;2022-08-21T07:21:02;23.00;90.70
11142;DHT22;5625;50.122;19.864;2022-08-21T07:23:33;23.00;89.90
11142;DHT22;5625;50.122;19.864;2022-08-21T07:26:02;23.00;90.30
11142;DHT22;5625;50.122;19.864;2022-08-21T07:28:31;23.10;89.60
11142;DHT22;5625;50.122;19.864;2022-08-21T07:31:01;23.10;88.60
11142;DHT22;5625;50.122;19.864;2022-08-21T07:33:32;23.10;89.80
11142;DHT22;5625;50.122;19.864;2022-08-21T07:36:00;23.10;87.70
11142;DHT22;5625;50.122;19.864;2022-08-21T07:38:28;23.20;86.80
11142;DHT22;5625;50.122;19.864;2022-08-21T07:40:57;23.20;85.30
11142;DHT22;5625;50.122;19.864;2022-08-21T07:43:27;23.30;83.70
11142;DHT22;5625;50.122;19.864;2022-08-21T07:45:55;23.30;84.00
11142;DHT22;5625;50.122;19.864;2022-08-21T07:48:25;23.40;82.10
11142;DHT22;5625;50.122;19.864;2022-08-21T07:50:53;23.50;79.90
11142;DHT22;5625;50.122;19.864;2022-08-21T07:53:22;23.50;78.70
11142;DHT22;5625;50.122;19.864;2022-08-21T07:55:53;23.60;78.20
11142;DHT22;5625;50.122;19.864;2022-08-21T07:58:24;23.60;76.50
11142;DHT22;5625;50.122;19.864;2022-08-21T08:00:52;23.70;75.40
11142;DHT22;5625;50.122;19.864;2022-08-21T08:03:21;23.70;74.40
11142;DHT22;5625;50.122;19.864;2022-08-21T08:05:56;23.80;73.10
11142;DHT22;5625;50.122;19.864;2022-08-21T08:08:26;23.80;70.50
11142;DHT22;5625;50.122;19.864;2022-08-21T08:10:56;23.90;69.20
11142;DHT22;5625;50.122;19.864;2022-08-21T08:13:24;23.90;68.20
11142;DHT22;5625;50.122;19.864;2022-08-21T08:15:52;24.00;67.40
11142;DHT22;5625;50.122;19.864;2022-08-21T08:18:20;24.00;66.40
11142;DHT22;5625;50.122;19.864;2022-08-21T08:20:48;24.10;65.10
11142;DHT22;5625;50.122;19.864;2022-08-21T08:23:18;24.30;61.90
11142;DHT22;5625;50.122;19.864;2022-08-21T08:25:46;24.40;56.80
11142;DHT22;5625;50.122;19.864;2022-08-21T08:28:14;24.50;99.90
11142;DHT22;5625;50.122;19.864;2022-08-21T08:30:44;24.60;99.90
11142;DHT22;5625;50.122;19.864;2022-08-21T08:33:12;24.70;99.90
11142;DHT22;5625;50.122;19.864;2022-08-21T08:35:40;24.70;99.90
11142;DHT22;5625;50.122;19.864;2022-08-21T08:38:09;24.90;99.90
11142;DHT22;5625;50.122;19.864;2022-08-21T08:40:42;25.10;99.90
11142;DHT22;5625;50.122;19.864;2022-08-21T08:43:14;25.30;99.90
11142;DHT22;5625;50.122;19.864;2022-08-21T08:45:46;25.40;99.90
11142;DHT22;5625;50.122;19.864;2022-08-21T08:48:20;25.50;99.90
11142;DHT22;5625;50.122;19.864;2022-08-21T08:50:57;25.70;99.90
11142;DHT22;5625;50.122;19.864;2022-08-21T08:53:34;25.90;99.90
11142;DHT22;5625;50.122;19.864;2022-08-21T08:56:11;26.10;99.90
11142;DHT22;5625;50.122;19.864;2022-08-21T08:58:41;26.20;99.90
11142;DHT22;5625;50.122;19.864;2022-08-21T09:01:17;26.40;99.90
11142;DHT22;5625;50.122;19.864;2022-08-21T09:03:47;26.50;99.90
11142;DHT22;5625;50.122;19.864;2022-08-21T09:06:27;26.50;99.90
11142;DHT22;5625;50.122;19.864;2022-08-21T09:09:04;26.50;99.90
11142;DHT22;5625;50.122;19.864;2022-08-21T09:11:45;26.60;99.90
11142;DHT22;5625;50.122;19.864;2022-08-21T09:14:24;26.70;99.90
11142;DHT22;5625;50.122;19.864;2022-08-21T09:16:58;26.70;99.90
11142;DHT22;5625;50.122;19.864;2022-08-21T09:19:42;26.90;99.90
11142;DHT22;5625;50.122;19.864;2022-08-21T09:22:19;27.00;99.90
11142;DHT22;5625;50.122;19.864;2022-08-21T09:24:58;27.10;99.90
11142;DHT22;5625;50.122;19.864;2022-08-21T09:27:31;27.10;99.90
11142;DHT22;5625;50.122;19.864;2022-08-21T09:29:59;27.10;99.90
11142;DHT22;5625;50.122;19.864;2022-08-21T09:32:31;27.30;99.90
11142;DHT22;5625;50.122;19.864;2022-08-21T09:35:06;27.40;99.90
11142;DHT22;5625;50.122;19.864;2022-08-21T09:37:46;27.50;99.90
11142;DHT22;5625;50.122;19.864;2022-08-21T09:43:21;27.30;99.90
11142;DHT22;5625;50.122;19.864;2022-08-21T09:46:07;27.20;99.90
11142;DHT22;5625;50.122;19.864;2022-08-21T09:48:42;27.10;99.90
11142;DHT22;5625;50.122;19.864;2022-08-21T09:51:15;27.10;99.90
11142;DHT22;5625;50.122;19.864;2022-08-21T09:53:47;27.40;99.90
11142;DHT22;5625;50.122;19.864;2022-08-21T09:56:19;27.70;99.90
11142;DHT22;5625;50.122;19.864;2022-08-21T09:59:19;27.80;99.90
11142;DHT22;5625;50.122;19.864;2022-08-21T10:01:50;28.00;99.90
11142;DHT22;5625;50.122;19.864;2022-08-21T10:04:24;28.00;99.90
11142;DHT22;5625;50.122;19.864;2022-08-21T10:07:06;28.30;99.90
11142;DHT22;5625;50.122;19.864;2022-08-21T10:09:35;28.40;99.90
11142;DHT22;5625;50.122;19.864;2022-08-21T10:12:13;28.60;99.90
11142;DHT22;5625;50.122;19.864;2022-08-21T10:14:52;28.90;99.90
11142;DHT22;5625;50.122;19.864;2022-08-21T10:17:31;29.00;99.90
11142;DHT22;5625;50.122;19.864;2022-08-21T10:20:06;29.00;99.90
11142;DHT22;5625;50.122;19.864;2022-08-21T10:22:42;29.00;99.90
11142;DHT22;5625;50.122;19.864;2022-08-21T10:25:19;28.90;99.90
11142;DHT22;5625;50.122;19.864;2022-08-21T10:27:56;28.80;99.90
11142;DHT22;5625;50.122;19.864;2022-08-21T10:30:38;28.70;99.90
11142;DHT22;5625;50.122;19.864;2022-08-21T10:33:20;28.50;99.90
11142;DHT22;5625;50.122;19.864;2022-08-21T10:35:55;28.30;99.90
11142;DHT22;5625;50.122;19.864;2022-08-21T10:38:44;28.20;99.90
11142;DHT22;5625;50.122;19.864;2022-08-21T10:41:46;28.10;99.90
11142;DHT22;5625;50.122;19.864;2022-08-21T10:44:33;27.90;99.90
11142;DHT22;5625;50.122;19.864;2022-08-21T10:47:11;27.90;99.90
11142;DHT22;5625;50.122;19.864;2022-08-21T10:49:45;27.70;99.90
11142;DHT22;5625;50.122;19.864;2022-08-21T10:52:38;27.60;99.90
11142;DHT22;5625;50.122;19.864;2022-08-21T10:55:13;27.60;99.90
11142;DHT22;5625;50.122;19.864;2022-08-21T10:57:46;27.50;99.90
11142;DHT22;5625;50.122;19.864;2022-08-21T11:00:18;27.30;99.90
11142;DHT22;5625;50.122;19.864;2022-08-21T11:02:53;27.30;99.90
11142;DHT22;5625;50.122;19.864;2022-08-21T11:05:27;27.20;99.90
11142;DHT22;5625;50.122;19.864;2022-08-21T11:08:14;27.10;1.00
11142;DHT22;5625;50.122;19.864;2022-08-21T11:10:47;26.90;1.00
11142;DHT22;5625;50.122;19.864;2022-08-21T11:13:31;26.80;1.00
11142;DHT22;5625;50.122;19.864;2022-08-21T11:16:05;26.70;1.00
11142;DHT22;5625;50.122;19.864;2022-08-21T11:18:39;26.70;1.00
11142;DHT22;5625;50.122;19.864;2022-08-21T11:21:25;26.50;1.00
11142;DHT22;5625;50.122;19.864;2022-08-21T11:24:50;26.40;1.00
11142;DHT22;5625;50.122;19.864;2022-08-21T11:27:26;26.20;25.60
11142;DHT22;5625;50.122;19.864;2022-08-21T11:29:59;26.10;22.20
11142;DHT22;5625;50.122;19.864;2022-08-21T11:32:44;26.00;20.90
11142;DHT22;5625;50.122;19.864;2022-08-21T11:35:22;25.80;99.90
11142;DHT22;5625;50.122;19.864;2022-08-21T11:38:00;25.60;99.90
11142;DHT22;5625;50.122;19.864;2022-08-21T11:40:50;25.50;99.90
11142;DHT22;5625;50.122;19.864;2022-08-21T11:43:32;25.30;99.90
11142;DHT22;5625;50.122;19.864;2022-08-21T11:46:15;25.00;99.90
11142;DHT22;5625;50.122;19.864;2022-08-21T11:49:04;24.80;99.90
11142;DHT22;5625;50.122;19.864;2022-08-21T11:51:38;24.60;99.90
11142;DHT22;5625;50.122;19.864;2022-08-21T11:54:21;24.60;99.90
11142;DHT22;5625;50.122;19.864;2022-08-21T11:56:57;24.50;99.90
11142;DHT22;5625;50.122;19.864;2022-08-21T11:59:45;24.30;99.90
11142;DHT22;5625;50.122;19.864;2022-08-21T12:02:19;24.30;99.90
11142;DHT22;5625;50.122;19.864;2022-08-21T12:04:52;24.20;99.90
11142;DHT22;5625;50.122;19.864;2022-08-21T12:07:38;24.20;99.90
11142;DHT22;5625;50.122;19.864;2022-08-21T12:10:09;24.10;99.90
11142;DHT22;5625;50.122;19.864;2022-08-21T12:12:43;24.10;99.90
11142;DHT22;5625;50.122;19.864;2022-08-21T12:15:27;24.00;99.90
11142;DHT22;5625;50.122;19.864;2022-08-21T12:18:01;24.00;99.90
11142;DHT22;5625;50.122;19.864;2022-08-21T12:20:43;24.00;99.90
11142;DHT22;5625;50.122;19.864;2022-08-21T12:23:26;24.00;99.90
11142;DHT22;5625;50.122;19.864;2022-08-21T12:26:02;24.00;99.90
11142;DHT22;5625;50.122;19.864;2022-08-21T12:28:32;24.00;99.90
11142;DHT22;5625;50.122;19.864;2022-08-21T12:31:01;23.90;99.90
11142;DHT22;5625;50.122;19.864;2022-08-21T12:33:32;23.90;99.90
11142;DHT22;5625;50.122;19.864;2022-08-21T12:36:05;24.00;99.90
11142;DHT22;5625;50.122;19.864;2022-08-21T12:38:43;23.90;99.90
11142;DHT22;5625;50.122;19.864;2022-08-21T12:41:18;24.00;99.90
11142;DHT22;5625;50.122;19.864;2022-08-21T12:43:58;24.00;99.90
11142;DHT22;5625;50.122;19.864;2022-08-21T12:46:39;24.00;99.90
11142;DHT22;5625;50.122;19.864;2022-08-21T12:49:13;24.00;99.90
11142;DHT22;5625;50.122;19.864;2022-08-21T12:52:04;24.10;99.90
11142;DHT22;5625;50.122;19.864;2022-08-21T12:54:39;24.10;99.90
11142;DHT22;5625;50.122;19.864;2022-08-21T12:57:09;24.10;99.90
11142;DHT22;5625;50.122;19.864;2022-08-21T12:59:46;24.10;99.90
11142;DHT22;5625;50.122;19.864;2022-08-21T13:02:23;24.10;99.90
11142;DHT22;5625;50.122;19.864;2022-08-21T13:04:52;24.10;99.90
11142;DHT22;5625;50.122;19.864;2022-08-21T13:07:27;24.10;99.90
11142;DHT22;5625;50.122;19.864;2022-08-21T13:09:58;24.10;99.90
11142;DHT22;5625;50.122;19.864;2022-08-21T13:12:27;24.10;99.90
11142;DHT22;5625;50.122;19.864;2022-08-21T13:15:03;24.30;99.90
11142;DHT22;5625;50.122;19.864;2022-08-21T13:17:38;24.30;99.90
11142;DHT22;5625;50.122;19.864;2022-08-21T13:20:10;24.40;99.90
11142;DHT22;5625;50.122;19.864;2022-08-21T13:22:46;24.30;99.90
11142;DHT22;5625;50.122;19.864;2022-08-21T13:25:17;24.30;99.90
11142;DHT22;5625;50.122;19.864;2022-08-21T13:27:57;24.30;99.90
11142;DHT22;5625;50.122;19.864;2022-08-21T13:30:30;24.30;99.90
11142;DHT22;5625;50.122;19.864;2022-08-21T13:33:00;24.20;99.90
11142;DHT22;5625;50.122;19.864;2022-08-21T13:35:31;24.10;99.90
11142;DHT22;5625;50.122;19.864;2022-08-21T13:38:04;24.00;99.90
11142;DHT22;5625;50.122;19.864;2022-08-21T13:40:41;23.90;99.90
11142;DHT22;5625;50.122;19.864;2022-08-21T13:43:11;23.80;99.90
11142;DHT22;5625;50.122;19.864;2022-08-21T13:45:50;23.80;99.90
11142;DHT22;5625;50.122;19.864;2022-08-21T13:48:19;23.70;99.90
11142;DHT22;5625;50.122;19.864;2022-08-21T13:50:47;23.80;99.90
11142;DHT22;5625;50.122;19.864;2022-08-21T13:53:23;23.70;99.90
11142;DHT22;5625;50.122;19.864;2022-08-21T13:55:55;23.70;99.90
11142;DHT22;5625;50.122;19.864;2022-08-21T13:58:28;23.70;99.90
11142;DHT22;5625;50.122;19.864;2022-08-21T14:00:59;23.80;99.90
11142;DHT22;5625;50.122;19.864;2022-08-21T14:03:35;23.80;99.90
11142;DHT22;5625;50.122;19.864;2022-08-21T14:06:11;23.80;99.90
11142;DHT22;5625;50.122;19.864;2022-08-21T14:08:40;23.70;99.90
11142;DHT22;5625;50.122;19.864;2022-08-21T14:11:11;23.70;99.90
11142;DHT22;5625;50.122;19.864;2022-08-21T14:13:42;23.60;99.90
11142;DHT22;5625;50.122;19.864;2022-08-21T14:16:17;23.50;99.90
11142;DHT22;5625;50.122;19.864;2022-08-21T14:18:48;23.60;99.90
11142;DHT22;5625;50.122;19.864;2022-08-21T14:21:29;23.60;99.90
11142;DHT22;5625;50.122;19.864;2022-08-21T14:24:04;23.60;99.90
11142;DHT22;5625;50.122;19.864;2022-08-21T14:26:34;23.50;99.90
11142;DHT22;5625;50.122;19.864;2022-08-21T14:29:09;23.50;99.90
11142;DHT22;5625;50.122;19.864;2022-08-21T14:31:39;23.50;99.90
11142;DHT22;5625;50.122;19.864;2022-08-21T14:34:10;23.50;99.90
11142;DHT22;5625;50.122;19.864;2022-08-21T14:36:46;23.50;99.90
11142;DHT22;5625;50.122;19.864;2022-08-21T14:39:14;23.40;99.90
11142;DHT22;5625;50.122;19.864;2022-08-21T14:41:42;23.40;99.90
11142;DHT22;5625;50.122;19.864;2022-08-21T14:44:13;23.40;99.90
11142;DHT22;5625;50.122;19.864;2022-08-21T14:46:42;23.40;99.90
11142;DHT22;5625;50.122;19.864;2022-08-21T14:49:23;23.40;99.90
11142;DHT22;5625;50.122;19.864;2022-08-21T14:51:53;23.40;99.90
11142;DHT22;5625;50.122;19.864;2022-08-21T14:54:24;23.40;99.90
11142;DHT22;5625;50.122;19.864;2022-08-21T14:56:59;23.30;99.90
11142;DHT22;5625;50.122;19.864;2022-08-21T14:59:29;23.30;99.90
11142;DHT22;5625;50.122;19.864;2022-08-21T15:01:59;23.30;99.90
11142;DHT22;5625;50.122;19.864;2022-08-21T15:04:27;23.40;99.90
11142;DHT22;5625;50.122;19.864;2022-08-21T15:06:56;23.30;99.90
11142;DHT22;5625;50.122;19.864;2022-08-21T15:09:24;23.30;99.90
11142;DHT22;5625;50.122;19.864;2022-08-21T15:11:53;23.30;99.90
11142;DHT22;5625;50.122;19.864;2022-08-21T15:14:25;23.30;99.90
11142;DHT22;5625;50.122;19.864;2022-08-21T15:16:53;23.20;99.90
11142;DHT22;5625;50.122;19.864;2022-08-21T15:19:23;23.20;99.90
11142;DHT22;5625;50.122;19.864;2022-08-21T15:21:53;23.10;99.90
11142;DHT22;5625;50.122;19.864;2022-08-21T15:24:21;23.10;99.90
11142;DHT22;5625;50.122;19.864;2022-08-21T15:26:49;23.10;99.90
11142;DHT22;5625;50.122;19.864;2022-08-21T15:29:18;23.10;99.90
11142;DHT22;5625;50.122;19.864;2022-08-21T15:31:53;23.00;99.90
11142;DHT22;5625;50.122;19.864;2022-08-21T15:34:24;23.00;99.90
11142;DHT22;5625;50.122;19.864;2022-08-21T15:36:54;23.00;99.90
11142;DHT22;5625;50.122;19.864;2022-08-21T15:39:24;23.00;99.90
11142;DHT22;5625;50.122;19.864;2022-08-21T15:41:57;22.90;99.90
11142;DHT22;5625;50.122;19.864;2022-08-21T15:44:28;22.90;99.90
11142;DHT22;5625;50.122;19.864;2022-08-21T15:46:57;22.90;99.90
11142;DHT22;5625;50.122;19.864;2022-08-21T15:49:27;22.90;99.90
11142;DHT22;5625;50.122;19.864;2022-08-21T15:51:56;22.80;99.90
11142;DHT22;5625;50.122;19.864;2022-08-21T15:54:24;22.80;99.90
11142;DHT22;5625;50.122;19.864;2022-08-21T15:56:52;22.70;99.90
11142;DHT22;5625;50.122;19.864;2022-08-21T15:59:21;22.70;99.90
11142;DHT22;5625;50.122;19.864;2022-08-21T16:01:50;22.60;99.90
11142;DHT22;5625;50.122;19.864;2022-08-21T16:04:21;22.60;99.90
11142;DHT22;5625;50.122;19.864;2022-08-21T16:06:52;22.50;99.90